Urb Vegas de Ceiba, Puerto Rico
Current Conditions -  °F | °C
As of 3:53 PM on Saturday 25 Oct 2014 (Local Time) from TJNR Reporting Station
Clear Clear  
Wind Chill: 87°   Ceiling: Unl
Heat Index: 95°   Visibility: 10mi
Dew Point: 74°   Wind: 13mph
Humidity: 65%   Direction: 160°SSE
Pressure: 29.88"   Gusts: NA
Location:  18.2667°N, 65.6476°W
Report Text: TJNR 251953Z AUTO 16011KT 10SM CLR 31/23 A2988 RMK AO2 SLP119 T03060233 $
Loading
Personal Weather Stations






























Interactive Weather Map
Tropical Storm Tracking
New forecast layout! Learn more

10-Day Weather Forecast

Advertisements
Track Severe Weather on mobile